createdAt,value
2023-01-29T00:01:49.423Z,102251.06
2023-01-29T00:06:51.981Z,102251.72
2023-01-29T00:11:56.782Z,102256.19
2023-01-29T00:16:59.330Z,102256.34
2023-01-29T00:22:01.829Z,102256.69
2023-01-29T00:27:06.355Z,102261.28
2023-01-29T00:32:09.057Z,102251.06
2023-01-29T00:37:11.780Z,102232.34
2023-01-29T00:42:38.495Z,102223.19
2023-01-29T00:47:40.987Z,102222.44
2023-01-29T00:52:43.479Z,102216.84
2023-01-29T00:57:47.638Z,102216.19
2023-01-29T01:03:08.775Z,102214.00
2023-01-29T01:08:25.769Z,102199.66
2023-01-29T01:13:30.109Z,102195.91
2023-01-29T01:18:32.851Z,102206.63
2023-01-29T01:23:35.675Z,102208.47
2023-01-29T01:28:39.634Z,102199.78
2023-01-29T01:33:42.610Z,102195.47
2023-01-29T01:38:45.498Z,102198.41
2023-01-29T01:43:51.529Z,102199.31
2023-01-29T01:48:58.810Z,102201.34
2023-01-29T01:54:07.169Z,102192.97
2023-01-29T01:59:13.996Z,102194.03
2023-01-29T02:04:38.172Z,102206.59
2023-01-29T02:09:46.318Z,102187.84
2023-01-29T02:14:52.097Z,102183.53
2023-01-29T02:20:03.589Z,102182.78
2023-01-29T02:25:38.349Z,102175.34
2023-01-29T02:30:50.509Z,102156.41
2023-01-29T02:35:59.083Z,102150.63
2023-01-29T02:41:06.383Z,102136.09
2023-01-29T02:46:17.803Z,102140.72
2023-01-29T02:51:25.274Z,102121.78
2023-01-29T02:56:35.861Z,102120.09
2023-01-29T03:01:46.522Z,102123.59
2023-01-29T03:06:54.656Z,102126.34
2023-01-29T03:12:02.275Z,102122.56
2023-01-29T03:17:10.367Z,102112.34
2023-01-29T03:22:16.528Z,102105.81
2023-01-29T03:27:41.239Z,102099.97
2023-01-29T03:32:47.561Z,102103.69
2023-01-29T03:37:50.603Z,102098.81
2023-01-29T03:43:04.122Z,102094.66
2023-01-29T03:48:12.116Z,102097.59
2023-01-29T03:53:22.838Z,102093.47
2023-01-29T03:58:35.702Z,102115.34
2023-01-29T04:03:42.956Z,102117.50
2023-01-29T04:08:51.995Z,102114.47
2023-01-29T04:13:54.873Z,102108.84
2023-01-29T04:18:58.955Z,102095.09
2023-01-29T04:24:01.571Z,102081.47
2023-01-29T04:29:21.547Z,102084.38
2023-01-29T04:34:29.701Z,102072.47
2023-01-29T04:39:41.245Z,102061.31
2023-01-29T04:44:54.546Z,102072.63
2023-01-29T04:50:11.818Z,102072.03
2023-01-29T04:55:21.458Z,102069.59
2023-01-29T05:00:28.631Z,102061.78
2023-01-29T05:05:32.513Z,102056.88
2023-01-29T05:10:36.943Z,102050.78
2023-01-29T05:15:41.270Z,102031.63
2023-01-29T05:20:45.529Z,102045.59
2023-01-29T05:25:49.122Z,102051.25
2023-01-29T05:30:53.532Z,102038.56
2023-01-29T05:35:59.176Z,102035.34
2023-01-29T05:41:01.638Z,102028.75
2023-01-29T05:46:04.124Z,102003.84
2023-01-29T05:51:08.063Z,102001.41
2023-01-29T05:56:10.531Z,102006.91
2023-01-29T06:01:15.046Z,101998.34
2023-01-29T06:06:18.911Z,102014.25
2023-01-29T06:11:21.637Z,102040.44
2023-01-29T06:16:24.200Z,102012.72
2023-01-29T06:21:28.034Z,101998.03
2023-01-29T06:26:30.587Z,102009.22
2023-01-29T06:31:38.760Z,101995.75
2023-01-29T06:36:43.161Z,101987.16
2023-01-29T06:41:46.294Z,101987.94
2023-01-29T06:46:48.796Z,101984.56
2023-01-29T06:51:52.594Z,101974.13
2023-01-29T06:56:56.181Z,101966.34
2023-01-29T07:01:58.779Z,101974.00
2023-01-29T07:07:02.680Z,101974.13
2023-01-29T07:12:05.514Z,101976.75
2023-01-29T07:17:07.988Z,101974.00
2023-01-29T07:22:11.791Z,101980.28
2023-01-29T07:27:14.299Z,101971.09
2023-01-29T07:32:16.849Z,101972.78
2023-01-29T07:37:20.789Z,101965.13
2023-01-29T07:42:23.377Z,101957.16
2023-01-29T07:47:25.869Z,101962.53
2023-01-29T07:52:30.418Z,101966.03
2023-01-29T07:57:32.888Z,101948.59
2023-01-29T08:02:35.384Z,101928.25
2023-01-29T08:07:39.210Z,101935.75
2023-01-29T08:12:41.680Z,101934.06
2023-01-29T08:17:57.192Z,101950.72
2023-01-29T08:23:03.351Z,101952.44
2023-01-29T08:28:06.165Z,101949.97
2023-01-29T08:33:08.669Z,101953.47
2023-01-29T08:38:12.500Z,101949.38
2023-01-29T08:43:15.266Z,101951.50
2023-01-29T08:48:17.741Z,101953.47
2023-01-29T08:53:24.565Z,101959.31
2023-01-29T08:58:27.075Z,101946.59
2023-01-29T09:03:29.542Z,101950.91
2023-01-29T09:08:33.429Z,101951.34
2023-01-29T09:13:36.013Z,101949.19
2023-01-29T09:18:38.531Z,101953.31
2023-01-29T09:23:42.321Z,101953.91
2023-01-29T09:28:44.792Z,101956.81
2023-01-29T09:33:47.266Z,101944.25
2023-01-29T09:38:51.048Z,101923.56
2023-01-29T09:43:58.820Z,101908.22
2023-01-29T09:49:05.198Z,101893.22
2023-01-29T09:54:18.637Z,101899.16
2023-01-29T09:59:23.536Z,101890.88
2023-01-29T10:05:02.688Z,101885.94
2023-01-29T10:10:28.038Z,101876.91
2023-01-29T10:15:45.168Z,101866.63
2023-01-29T10:21:04.435Z,101861.41
2023-01-29T10:26:12.308Z,101846.06
2023-01-29T10:31:19.306Z,101833.19
2023-01-29T10:36:27.095Z,101826.56
2023-01-29T10:41:54.794Z,101825.22
2023-01-29T10:47:17.292Z,101829.06
2023-01-29T10:52:34.774Z,101831.53
2023-01-29T10:57:53.582Z,101823.56
2023-01-29T11:02:56.211Z,101808.38
2023-01-29T11:08:06.137Z,101807.59
2023-01-29T11:13:15.586Z,101786.28
2023-01-29T11:18:18.134Z,101783.06
2023-01-29T11:23:28.155Z,101782.13
2023-01-29T11:28:40.288Z,101771.56
2023-01-29T11:33:43.206Z,101768.81
2023-01-29T11:38:45.677Z,101775.09
2023-01-29T11:43:49.502Z,101774.44
2023-01-29T11:48:58.983Z,101764.97
2023-01-29T11:54:06.647Z,101763.88
2023-01-29T11:59:28.152Z,101759.31
2023-01-29T12:04:31.505Z,101741.84
2023-01-29T12:09:34.015Z,101748.25
2023-01-29T12:14:38.906Z,101729.59
2023-01-29T12:19:45.316Z,101723.63
2023-01-29T12:24:54.670Z,101729.25
2023-01-29T12:30:04.847Z,101714.38
2023-01-29T12:35:13.938Z,101714.25
2023-01-29T12:40:18.439Z,101704.63
2023-01-29T12:45:25.736Z,101692.97
2023-01-29T12:50:30.961Z,101689.34
2023-01-29T12:55:38.966Z,101687.22
2023-01-29T13:00:45.712Z,101680.78
2023-01-29T13:05:52.087Z,101672.84
2023-01-29T13:10:56.088Z,101657.22
2023-01-29T13:16:01.403Z,101658.91
2023-01-29T13:21:05.220Z,101638.09
2023-01-29T13:26:07.941Z,101633.78
2023-01-29T13:31:24.488Z,101634.06
2023-01-29T13:36:30.012Z,101619.34
2023-01-29T13:41:35.706Z,101614.91
2023-01-29T13:46:42.814Z,101597.84
2023-01-29T13:51:45.294Z,101604.91
2023-01-29T13:56:59.292Z,101598.94
2023-01-29T14:02:19.559Z,101573.50
2023-01-29T14:07:51.164Z,101572.63
2023-01-29T14:12:55.443Z,101563.88
2023-01-29T14:18:15.814Z,101546.69
2023-01-29T14:23:28.990Z,101546.69
2023-01-29T14:28:34.140Z,101540.16
2023-01-29T14:33:42.369Z,101533.41
2023-01-29T14:38:51.080Z,101528.97
2023-01-29T14:44:28.268Z,101521.28
2023-01-29T14:49:51.414Z,101519.94
2023-01-29T14:54:58.301Z,101519.19
2023-01-29T15:00:05.255Z,101508.75
2023-01-29T15:05:15.082Z,101494.97
2023-01-29T15:10:23.206Z,101493.91
2023-01-29T15:15:36.270Z,101481.69
2023-01-29T15:20:41.740Z,101485.06
2023-01-29T15:25:51.038Z,101472.16
2023-01-29T15:30:56.306Z,101458.88
2023-01-29T15:36:07.319Z,101464.09
2023-01-29T15:41:19.185Z,101463.94
2023-01-29T15:46:25.898Z,101445.72
2023-01-29T15:51:30.246Z,101448.06
2023-01-29T15:56:37.184Z,101450.53
2023-01-29T16:01:39.855Z,101451.28
2023-01-29T16:06:44.674Z,101441.50
2023-01-29T16:11:50.361Z,101428.34
2023-01-29T16:16:53.280Z,101423.91
2023-01-29T16:22:01.077Z,101422.75
2023-01-29T16:27:12.110Z,101411.31
2023-01-29T16:32:16.328Z,101389.41
2023-01-29T16:37:24.621Z,101377.03
2023-01-29T16:42:31.506Z,101357.63
2023-01-29T16:47:36.049Z,101358.41
2023-01-29T16:52:40.194Z,101359.16
2023-01-29T16:57:52.781Z,101358.13
2023-01-29T17:03:00.378Z,101346.81
2023-01-29T17:08:05.799Z,101343.28
2023-01-29T17:13:16.176Z,101341.47
2023-01-29T17:18:20.660Z,101336.41
2023-01-29T17:23:25.040Z,101340.53
2023-01-29T17:28:28.507Z,101320.50
2023-01-29T17:33:35.470Z,101332.47
2023-01-29T17:38:41.753Z,101310.88
2023-01-29T17:43:46.469Z,101296.81
2023-01-29T17:48:52.524Z,101296.81
2023-01-29T17:53:59.293Z,101285.22
2023-01-29T17:59:05.961Z,101272.97
2023-01-29T18:10:17.741Z,101263.09
2023-01-29T18:15:34.807Z,101251.66
2023-01-29T18:20:40.830Z,101252.28
2023-01-29T18:25:45.771Z,101245.25
2023-01-29T18:30:51.276Z,101238.22
2023-01-29T18:35:56.051Z,101224.28
2023-01-29T18:41:10.622Z,101216.34
2023-01-29T18:46:16.706Z,101197.13
2023-01-29T18:51:22.499Z,101201.00
2023-01-29T18:56:26.022Z,101182.50
2023-01-29T19:01:34.573Z,101171.84
2023-01-29T19:06:38.227Z,101162.84
2023-01-29T19:11:41.189Z,101159.09
2023-01-29T19:16:46.678Z,101145.06
2023-01-29T19:21:49.765Z,101148.41
2023-01-29T19:32:48.343Z,101103.94
2023-01-29T19:43:38.088Z,101087.03
2023-01-29T19:48:40.769Z,101071.56
2023-01-29T19:53:44.501Z,101060.38
2023-01-29T19:58:48.748Z,101055.06
2023-01-29T20:03:51.681Z,101033.75
2023-01-29T20:08:54.751Z,101010.06
2023-01-29T20:13:59.060Z,100993.41
2023-01-29T20:19:13.987Z,100999.94
2023-01-29T20:24:17.259Z,101001.72
2023-01-29T20:29:21.133Z,101000.06
2023-01-29T20:34:23.964Z,101007.22
2023-01-29T20:39:26.491Z,100983.00
2023-01-29T20:44:30.267Z,100973.41
2023-01-29T20:49:32.791Z,100988.84
2023-01-29T20:54:35.273Z,100960.25
2023-01-29T20:59:39.270Z,100937.41
2023-01-29T21:04:44.094Z,100927.63
2023-01-29T21:09:46.821Z,100912.69
2023-01-29T21:14:50.711Z,100909.97
2023-01-29T21:19:53.171Z,100899.56
2023-01-29T21:24:55.760Z,100896.84
2023-01-29T21:29:59.786Z,100899.56
2023-01-29T21:35:02.272Z,100863.28
2023-01-29T21:40:06.291Z,100846.78
2023-01-29T21:45:11.022Z,100846.91
2023-01-29T21:50:13.761Z,100848.44
2023-01-29T21:55:16.663Z,100829.72
2023-01-29T22:00:21.086Z,100838.19
2023-01-29T22:05:23.792Z,100832.72
2023-01-29T22:10:26.304Z,100838.97
2023-01-29T22:15:30.284Z,100821.69
2023-01-29T22:20:32.894Z,100819.72
2023-01-29T22:25:35.738Z,100797.25
2023-01-29T22:30:39.605Z,100783.34
2023-01-29T22:35:42.081Z,100767.06
2023-01-29T22:40:50.152Z,100765.00
2023-01-29T22:45:54.018Z,100761.63
2023-01-29T22:51:10.116Z,100753.19
2023-01-29T22:56:12.947Z,100748.63
2023-01-29T23:01:19.058Z,100682.59
2023-01-29T23:06:22.278Z,100678.09
2023-01-29T23:11:24.791Z,100674.31
2023-01-29T23:16:29.513Z,100662.09
2023-01-29T23:21:32.076Z,100641.97
2023-01-29T23:26:52.105Z,100635.97
2023-01-29T23:31:55.991Z,100628.28
2023-01-29T23:36:58.454Z,100599.03
2023-01-29T23:42:01.259Z,100568.66
2023-01-29T23:47:05.129Z,100538.59
2023-01-29T23:52:07.710Z,100533.53
2023-01-29T23:57:10.246Z,100515.00
